Time;durP1;ratioP1;P1;durP2;ratioP2;P2;SDS_P1;SDS_P2;PMS_P1;PMS_P2;Temp;Humidity;BMP_temperature;BMP_pressure;BME280_temperature;BME280_humidity;BME280_pressure;Samples;Min_cycle;Max_cycle;Signal;HPM_P1;HPM_P2
2023/03/23 00:00:46;;;;;;;;;;;;;;;17.32;42.79;96440.16;5048973;28;20447;-81
2023/03/23 00:03:12;;;;;;;;;;;;;;;16.94;43.51;96445.16;5097656;28;20399;-81
2023/03/23 00:05:41;;;;;;;;;;;;;;;17.15;43.73;96440.13;5112920;27;20354;-82
2023/03/23 00:08:08;;;;;;;;;;;;;;;16.79;44.10;96441.03;5090805;27;19916;-84
2023/03/23 00:10:34;;;;;;;;;;;;;;;17.29;43.10;96445.25;5068051;28;19955;-86
2023/03/23 00:13:02;;;;;;;;;;;;;;;17.09;43.49;96443.97;5051275;28;19924;-81
2023/03/23 00:15:30;;;;;;;;;;;;;;;16.75;43.51;96442.72;5078945;28;19966;-81
2023/03/23 00:18:02;;;;;;;;;;;;;;;17.29;43.04;96437.38;5074722;28;19931;-81
2023/03/23 00:20:29;;;;;;;;;;;;;;;17.01;43.55;96446.25;5081685;28;19920;-83
2023/03/23 00:22:59;;;;;;;;;;;;;;;17.22;43.78;96445.69;5098823;28;19955;-81
2023/03/23 00:25:25;;;;;;;;;;;;;;;17.20;43.46;96442.59;5055847;28;19931;-80
2023/03/23 00:27:50;;;;;;;;;;;;;;;17.38;42.58;96448.72;5083048;28;19920;-79
2023/03/23 00:30:16;;;;;;;;;;;;;;;17.46;42.75;96444.53;5086029;28;20365;-81
2023/03/23 00:32:41;;;;;;;;;;;;;;;17.38;43.00;96438.94;5053455;28;19952;-80
2023/03/23 00:35:06;;;;;;;;;;;;;;;17.48;42.45;96437.09;5068660;28;19920;-79
2023/03/23 00:37:32;;;;;;;;;;;;;;;17.48;42.51;96424.75;5068093;28;19924;-80
2023/03/23 00:40:00;;;;;;;;;;;;;;;17.40;42.50;96433.38;5082937;28;19920;-81
2023/03/23 00:42:25;;;;;;;;;;;;;;;17.50;42.31;96443.63;5086429;28;19928;-81
2023/03/23 00:44:53;;;;;;;;;;;;;;;17.27;43.21;96436.91;5101399;28;20011;-80
2023/03/23 00:47:19;;;;;;;;;;;;;;;17.32;43.15;96434.13;5084166;28;21154;-80
2023/03/23 00:49:44;;;;;;;;;;;;;;;17.48;42.24;96429.22;5102042;27;20417;-80
2023/03/23 00:52:10;;;;;;;;;;;;;;;17.19;42.83;96425.28;5100270;28;19923;-81
2023/03/23 00:54:37;;;;;;;;;;;;;;;17.52;42.30;96432.78;5070022;28;19922;-80
2023/03/23 00:57:02;;;;;;;;;;;;;;;17.63;41.92;96423.50;5050400;28;19920;-80
2023/03/23 00:59:28;;;;;;;;;;;;;;;17.42;42.83;96410.16;5079967;28;20393;-80
2023/03/23 01:01:53;;;;;;;;;;;;;;;17.37;42.27;96408.44;5086585;28;19927;-84
2023/03/23 01:04:19;;;;;;;;;;;;;;;17.41;42.43;96404.13;5084036;28;19924;-82
2023/03/23 01:06:46;;;;;;;;;;;;;;;17.58;42.20;96405.22;5041304;28;19921;-81
2023/03/23 01:09:16;;;;;;;;;;;;;;;17.61;42.79;96399.34;5101121;27;19966;-82
2023/03/23 01:11:42;;;;;;;;;;;;;;;17.66;42.44;96398.44;5080030;28;19916;-81
2023/03/23 01:14:07;;;;;;;;;;;;;;;17.77;42.31;96397.81;5100266;28;19916;-79
2023/03/23 01:16:33;;;;;;;;;;;;;;;17.69;41.97;96390.69;5101218;28;20341;-81
2023/03/23 01:18:58;;;;;;;;;;;;;;;17.66;42.72;96393.16;5069507;28;19931;-79
2023/03/23 01:21:24;;;;;;;;;;;;;;;17.76;41.92;96385.72;5078360;28;20298;-80
2023/03/23 01:23:50;;;;;;;;;;;;;;;17.68;42.48;96394.41;5101177;28;19923;-80
2023/03/23 01:26:17;;;;;;;;;;;;;;;17.54;42.30;96389.28;5086542;28;19928;-79
2023/03/23 01:28:42;;;;;;;;;;;;;;;17.71;42.01;96398.28;5084750;28;20449;-80
2023/03/23 01:31:12;;;;;;;;;;;;;;;17.50;42.52;96379.69;5067150;28;19916;-82
2023/03/23 01:33:39;;;;;;;;;;;;;;;17.67;42.39;96369.16;5085016;28;19920;-79
2023/03/23 01:36:05;;;;;;;;;;;;;;;17.53;43.02;96363.25;5050997;28;20019;-81
2023/03/23 01:38:30;;;;;;;;;;;;;;;17.65;42.12;96363.44;5070479;28;19916;-81
2023/03/23 01:40:56;;;;;;;;;;;;;;;17.72;41.84;96345.31;5054201;28;20299;-81
2023/03/23 01:43:21;;;;;;;;;;;;;;;17.60;42.55;96355.69;5066634;28;19925;-81
2023/03/23 01:45:47;;;;;;;;;;;;;;;17.60;42.36;96360.97;5093155;28;20387;-81
2023/03/23 01:48:16;;;;;;;;;;;;;;;17.66;42.10;96364.22;5080698;28;20390;-80
2023/03/23 01:51:01;;;;;;;;;;;;;;;17.67;42.43;96368.41;5068990;28;19970;-80
2023/03/23 01:53:29;;;;;;;;;;;;;;;17.61;42.87;96370.38;5069042;28;19999;-80
2023/03/23 01:55:54;;;;;;;;;;;;;;;17.66;42.32;96375.50;5103646;28;20001;-80
2023/03/23 01:58:20;;;;;;;;;;;;;;;17.59;42.88;96380.47;5084377;28;20332;-79
2023/03/23 02:00:47;;;;;;;;;;;;;;;17.51;42.86;96373.31;5063179;28;20380;-83
2023/03/23 02:03:13;;;;;;;;;;;;;;;17.55;42.38;96369.78;5053133;22;19990;-78
2023/03/23 02:05:40;;;;;;;;;;;;;;;17.67;42.65;96373.66;5020123;28;19929;-78
2023/03/23 02:08:05;;;;;;;;;;;;;;;17.51;42.76;96368.84;5018196;28;19916;-77
2023/03/23 02:10:31;;;;;;;;;;;;;;;17.56;42.89;96357.38;5036263;28;20126;-76
2023/03/23 02:12:57;;;;;;;;;;;;;;;17.52;42.64;96348.56;5012477;28;20372;-77
2023/03/23 02:15:23;;;;;;;;;;;;;;;17.68;42.66;96356.78;5028401;28;19917;-78
2023/03/23 02:17:55;;;;;;;;;;;;;;;17.48;42.68;96342.34;5060064;28;20314;-75
2023/03/23 02:20:37;;;;;;;;;;;;;;;17.65;42.53;96344.22;5045185;28;20603;-75
2023/03/23 02:23:09;;;;;;;;;;;;;;;17.71;42.48;96351.66;5029339;28;19924;-76
2023/03/23 02:25:53;;;;;;;;;;;;;;;17.71;42.24;96350.88;5036997;28;19929;-75
2023/03/23 02:28:57;;;;;;;;;;;;;;;17.67;42.44;96345.47;5058771;28;19925;-75
2023/03/23 02:31:25;;;;;;;;;;;;;;;17.58;42.88;96344.69;4982061;28;19921;-75
2023/03/23 02:33:57;;;;;;;;;;;;;;;17.55;42.95;96342.69;4995998;28;20078;-75
2023/03/23 02:36:24;;;;;;;;;;;;;;;17.53;43.53;96336.94;4990869;28;19929;-75
2023/03/23 02:38:55;;;;;;;;;;;;;;;17.41;43.38;96333.09;4999984;28;19921;-75
2023/03/23 02:41:24;;;;;;;;;;;;;;;17.48;43.02;96327.38;5008349;28;19932;-75
2023/03/23 02:43:49;;;;;;;;;;;;;;;17.65;42.90;96331.06;4990126;28;20019;-75
2023/03/23 02:46:15;;;;;;;;;;;;;;;17.55;42.89;96337.44;4973368;28;20035;-75
2023/03/23 02:48:40;;;;;;;;;;;;;;;17.70;42.53;96329.06;5007871;28;19918;-75
2023/03/23 02:51:06;;;;;;;;;;;;;;;17.57;43.45;96324.72;5006134;28;19917;-75
2023/03/23 02:53:34;;;;;;;;;;;;;;;17.64;42.85;96325.03;4997891;28;19925;-75
2023/03/23 02:56:02;;;;;;;;;;;;;;;17.58;43.26;96323.63;5004211;28;20034;-74
2023/03/23 02:58:28;;;;;;;;;;;;;;;17.58;43.39;96321.00;4973553;28;19942;-75
2023/03/23 03:00:53;;;;;;;;;;;;;;;17.55;43.70;96326.91;5003247;28;19969;-76
2023/03/23 03:03:23;;;;;;;;;;;;;;;17.36;43.71;96320.06;5011245;28;19925;-75
2023/03/23 03:05:59;;;;;;;;;;;;;;;17.43;43.93;96314.34;5033186;28;19971;-75
2023/03/23 03:08:27;;;;;;;;;;;;;;;17.58;43.74;96315.72;5033666;28;20379;-74
2023/03/23 03:11:00;;;;;;;;;;;;;;;17.47;43.80;96325.81;5030948;28;19917;-76
2023/03/23 03:13:26;;;;;;;;;;;;;;;17.65;43.72;96326.59;5028787;28;20340;-76
2023/03/23 03:15:56;;;;;;;;;;;;;;;17.62;43.69;96321.94;5042842;28;19971;-73
2023/03/23 03:18:23;;;;;;;;;;;;;;;17.76;43.16;96321.78;5035491;28;20383;-75
2023/03/23 03:20:49;;;;;;;;;;;;;;;17.69;43.20;96311.72;5027424;28;19917;-76
2023/03/23 03:23:15;;;;;;;;;;;;;;;17.63;43.97;96315.56;5015893;28;19927;-74
2023/03/23 03:25:42;;;;;;;;;;;;;;;17.63;43.52;96318.19;5017889;28;19917;-75
2023/03/23 03:28:08;;;;;;;;;;;;;;;17.69;43.79;96316.97;5031972;28;19966;-75
2023/03/23 03:30:34;;;;;;;;;;;;;;;17.70;43.64;96315.91;5031968;28;20575;-74
2023/03/23 03:33:03;;;;;;;;;;;;;;;17.76;42.92;96312.00;5048051;28;19921;-75
2023/03/23 03:35:28;;;;;;;;;;;;;;;17.70;43.68;96312.47;5016011;28;19924;-76
2023/03/23 03:37:53;;;;;;;;;;;;;;;17.68;43.27;96317.28;5051497;28;19921;-76
2023/03/23 03:40:20;;;;;;;;;;;;;;;17.64;43.80;96319.00;5000265;28;19999;-75
2023/03/23 03:42:45;;;;;;;;;;;;;;;17.75;44.29;96321.00;5001186;28;19936;-72
2023/03/23 03:45:15;;;;;;;;;;;;;;;17.43;46.69;96338.03;5040668;28;19921;-75
2023/03/23 03:47:40;;;;;;;;;;;;;;;17.42;46.63;96345.13;5043603;28;19916;-75
2023/03/23 03:50:06;;;;;;;;;;;;;;;17.58;46.83;96337.59;5031052;28;19924;-75
2023/03/23 03:52:31;;;;;;;;;;;;;;;17.53;47.12;96342.19;5042663;28;19936;-75
2023/03/23 03:54:57;;;;;;;;;;;;;;;17.49;48.06;96343.91;5025774;28;19960;-76
2023/03/23 03:57:22;;;;;;;;;;;;;;;17.36;48.08;96338.50;5001127;28;19917;-76
2023/03/23 03:59:48;;;;;;;;;;;;;;;17.37;48.90;96337.41;5000222;28;19924;-76
2023/03/23 04:02:16;;;;;;;;;;;;;;;17.20;49.42;96350.53;5026362;28;20369;-75
2023/03/23 04:04:41;;;;;;;;;;;;;;;16.94;50.61;96346.00;5045972;28;20035;-74
2023/03/23 04:07:07;;;;;;;;;;;;;;;16.92;50.68;96342.91;5020080;28;20058;-76
2023/03/23 04:09:32;;;;;;;;;;;;;;;16.91;50.20;96353.72;5009495;28;19917;-76
2023/03/23 04:11:57;;;;;;;;;;;;;;;16.82;50.58;96353.66;5019223;28;20368;-76
2023/03/23 04:14:22;;;;;;;;;;;;;;;16.78;51.07;96356.13;5050382;28;20023;-76
2023/03/23 04:16:56;;;;;;;;;;;;;;;16.76;51.43;96355.66;5013183;28;19917;-75
2023/03/23 04:19:21;;;;;;;;;;;;;;;16.61;51.77;96354.22;5017757;28;20430;-76
2023/03/23 04:21:48;;;;;;;;;;;;;;;16.58;51.62;96359.31;4997320;28;20009;-77
2023/03/23 04:24:14;;;;;;;;;;;;;;;16.61;51.64;96358.69;5026148;28;20358;-75
2023/03/23 04:26:41;;;;;;;;;;;;;;;16.54;52.67;96363.63;5035523;28;19917;-76
2023/03/23 04:29:07;;;;;;;;;;;;;;;16.61;51.86;96367.34;5029113;28;19920;-76
2023/03/23 04:31:32;;;;;;;;;;;;;;;16.47;52.33;96375.31;5006425;28;19916;-75
2023/03/23 04:33:59;;;;;;;;;;;;;;;16.51;52.10;96380.75;5024912;28;19912;-76
2023/03/23 04:36:25;;;;;;;;;;;;;;;16.28;53.03;96383.41;5040938;28;19921;-75
2023/03/23 04:38:54;;;;;;;;;;;;;;;16.31;52.66;96381.25;5043544;28;19932;-75
2023/03/23 04:41:19;;;;;;;;;;;;;;;16.39;52.83;96388.41;5036890;28;19925;-76
2023/03/23 04:43:45;;;;;;;;;;;;;;;16.51;52.37;96393.91;5045192;28;19982;-75
2023/03/23 04:46:10;;;;;;;;;;;;;;;16.39;53.04;96397.06;5025610;28;19924;-75
2023/03/23 04:48:35;;;;;;;;;;;;;;;16.52;52.87;96400.72;5040135;28;19924;-75
2023/03/23 04:51:02;;;;;;;;;;;;;;;16.34;53.93;96402.44;5019834;28;20396;-76
2023/03/23 04:53:28;;;;;;;;;;;;;;;16.34;54.54;96396.44;5023718;28;20002;-75
2023/03/23 04:55:53;;;;;;;;;;;;;;;16.13;55.03;96391.66;5008401;28;19998;-75
2023/03/23 04:58:19;;;;;;;;;;;;;;;16.15;55.34;96402.63;5021611;28;19921;-76
2023/03/23 05:00:49;;;;;;;;;;;;;;;16.23;55.09;96401.94;5058031;28;19927;-75
2023/03/23 05:03:16;;;;;;;;;;;;;;;16.05;55.81;96400.25;5011402;28;19944;-75
2023/03/23 05:05:41;;;;;;;;;;;;;;;16.08;55.67;96391.78;5007923;28;19924;-75
2023/03/23 05:08:07;;;;;;;;;;;;;;;16.11;55.71;96388.56;5008185;28;20109;-75
2023/03/23 05:10:32;;;;;;;;;;;;;;;15.53;57.52;96385.63;5057814;28;19920;-75
2023/03/23 05:12:57;;;;;;;;;;;;;;;15.71;56.98;96375.25;5019149;28;19924;-75
2023/03/23 05:15:22;;;;;;;;;;;;;;;15.80;56.76;96370.91;5032682;28;20378;-76
2023/03/23 05:17:48;;;;;;;;;;;;;;;15.93;56.68;96377.16;5038899;28;19932;-75
2023/03/23 05:20:17;;;;;;;;;;;;;;;15.69;57.56;96377.41;5031898;28;20384;-75
2023/03/23 05:22:44;;;;;;;;;;;;;;;15.87;56.77;96379.13;5030296;28;19975;-76
2023/03/23 05:25:10;;;;;;;;;;;;;;;15.85;57.02;96381.28;5020464;28;19978;-76
2023/03/23 05:27:36;;;;;;;;;;;;;;;15.79;57.21;96376.44;5033305;28;20379;-75
2023/03/23 05:30:01;;;;;;;;;;;;;;;15.81;57.38;96377.69;5039474;28;19916;-76
2023/03/23 05:32:29;;;;;;;;;;;;;;;15.86;57.70;96384.69;5038770;28;19924;-76
2023/03/23 05:34:58;;;;;;;;;;;;;;;15.72;57.80;96372.34;5024840;28;19928;-74
2023/03/23 05:37:24;;;;;;;;;;;;;;;15.79;57.39;96377.22;5001273;28;20376;-76
2023/03/23 05:39:53;;;;;;;;;;;;;;;15.77;57.62;96376.75;5000468;28;19924;-77
2023/03/23 05:42:18;;;;;;;;;;;;;;;15.78;57.56;96367.00;5021148;28;19925;-76
2023/03/23 05:44:45;;;;;;;;;;;;;;;15.89;58.05;96378.84;5038470;28;19967;-76
2023/03/23 05:47:10;;;;;;;;;;;;;;;15.80;58.57;96389.28;5002044;28;19956;-76
2023/03/23 05:49:36;;;;;;;;;;;;;;;15.65;59.12;96392.22;5043520;28;20203;-76
2023/03/23 05:52:01;;;;;;;;;;;;;;;15.60;59.35;96389.69;5012813;28;19928;-76
2023/03/23 05:54:26;;;;;;;;;;;;;;;15.74;59.46;96395.66;5016877;28;20139;-76
2023/03/23 05:56:52;;;;;;;;;;;;;;;15.53;59.04;96401.34;5009480;28;20291;-76
2023/03/23 05:59:17;;;;;;;;;;;;;;;15.35;59.93;96407.50;5001241;28;19920;-75
2023/03/23 06:01:43;;;;;;;;;;;;;;;15.53;60.29;96401.34;5028206;28;19924;-76
2023/03/23 06:04:09;;;;;;;;;;;;;;;15.80;59.80;96401.59;5004220;28;20000;-76
2023/03/23 06:06:34;;;;;;;;;;;;;;;15.60;60.20;96400.97;5055418;28;20372;-75
2023/03/23 06:09:00;;;;;;;;;;;;;;;15.68;59.96;96407.38;5025205;28;19923;-76
2023/03/23 06:11:26;;;;;;;;;;;;;;;15.51;60.35;96402.75;5009282;28;19916;-77
2023/03/23 06:13:52;;;;;;;;;;;;;;;15.54;60.58;96408.16;5030403;28;20317;-77
2023/03/23 06:16:17;;;;;;;;;;;;;;;15.38;60.68;96409.53;5013436;28;19917;-76
2023/03/23 06:18:42;;;;;;;;;;;;;;;15.51;60.77;96413.22;5016951;28;19928;-77
2023/03/23 06:21:08;;;;;;;;;;;;;;;15.36;60.85;96417.72;5007866;28;20012;-77
2023/03/23 06:23:34;;;;;;;;;;;;;;;15.54;60.71;96433.59;5044659;28;20023;-76
2023/03/23 06:26:00;;;;;;;;;;;;;;;15.40;61.25;96441.50;5030597;28;20566;-76
2023/03/23 06:28:26;;;;;;;;;;;;;;;15.54;60.38;96444.91;5006165;28;20172;-76
2023/03/23 06:30:52;;;;;;;;;;;;;;;15.35;60.64;96454.72;5022642;28;19917;-77
2023/03/23 06:33:17;;;;;;;;;;;;;;;15.43;61.18;96448.03;5020308;28;20125;-75
2023/03/23 06:35:43;;;;;;;;;;;;;;;15.39;61.13;96447.84;5020874;28;19920;-76
2023/03/23 06:38:08;;;;;;;;;;;;;;;15.22;61.95;96447.66;5010050;28;19916;-76
2023/03/23 06:40:35;;;;;;;;;;;;;;;15.47;62.24;96449.78;5013632;28;19929;-76
2023/03/23 06:43:01;;;;;;;;;;;;;;;15.38;62.41;96464.63;5009807;28;20055;-76
2023/03/23 06:45:26;;;;;;;;;;;;;;;15.38;61.30;96459.38;5018825;28;20007;-76
2023/03/23 06:47:51;;;;;;;;;;;;;;;15.26;61.84;96459.88;5014729;28;19924;-76
2023/03/23 06:50:17;;;;;;;;;;;;;;;15.34;62.46;96455.81;5047076;28;19963;-76
2023/03/23 06:52:46;;;;;;;;;;;;;;;15.25;62.54;96468.03;5027346;28;20373;-74
2023/03/23 06:55:12;;;;;;;;;;;;;;;15.10;62.51;96459.38;4997766;28;19924;-75
2023/03/23 06:57:37;;;;;;;;;;;;;;;14.82;63.70;96463.81;5010719;28;19971;-74
2023/03/23 07:00:04;;;;;;;;;;;;;;;14.98;63.61;96461.72;5026242;28;19924;-75
2023/03/23 07:02:30;;;;;;;;;;;;;;;15.13;63.53;96461.44;5011167;28;19929;-74
2023/03/23 07:04:55;;;;;;;;;;;;;;;15.22;63.34;96464.16;5012230;28;19925;-76
2023/03/23 07:07:21;;;;;;;;;;;;;;;15.39;63.30;96466.19;5029800;28;19963;-76
2023/03/23 07:09:46;;;;;;;;;;;;;;;15.13;63.37;96458.00;5030086;28;19986;-74
2023/03/23 07:12:11;;;;;;;;;;;;;;;15.25;62.41;96463.59;5046382;28;20371;-76
2023/03/23 07:14:36;;;;;;;;;;;;;;;15.23;62.63;96464.94;5029888;28;20067;-75
2023/03/23 07:17:02;;;;;;;;;;;;;;;15.33;62.81;96460.25;5007516;28;19921;-76
2023/03/23 07:19:27;;;;;;;;;;;;;;;15.21;63.10;96462.59;5046836;28;19921;-76
2023/03/23 07:21:53;;;;;;;;;;;;;;;15.44;62.38;96465.28;5010173;28;20277;-76
2023/03/23 07:24:19;;;;;;;;;;;;;;;15.29;62.58;96474.25;4996177;28;20121;-76
2023/03/23 07:26:44;;;;;;;;;;;;;;;15.22;62.52;96479.13;5010201;28;19921;-74
2023/03/23 07:29:09;;;;;;;;;;;;;;;15.29;63.01;96479.50;5035042;28;20372;-76
2023/03/23 07:31:35;;;;;;;;;;;;;;;15.45;62.67;96483.38;5024706;28;19917;-76
2023/03/23 07:34:00;;;;;;;;;;;;;;;15.24;63.55;96490.09;4995868;28;20437;-76
2023/03/23 07:36:29;;;;;;;;;;;;;;;15.27;62.86;96495.53;5036979;28;19956;-76
2023/03/23 07:38:54;;;;;;;;;;;;;;;15.38;62.61;96490.09;5013373;28;19988;-77
2023/03/23 07:41:20;;;;;;;;;;;;;;;15.41;62.93;96498.16;4995087;28;19917;-76
2023/03/23 07:43:45;;;;;;;;;;;;;;;15.28;63.24;96488.44;5013454;28;20318;-76
2023/03/23 07:46:11;;;;;;;;;;;;;;;15.50;62.49;96491.16;5029588;28;19965;-75
2023/03/23 07:48:37;;;;;;;;;;;;;;;15.39;63.25;96500.28;5045016;28;20015;-74
2023/03/23 07:51:03;;;;;;;;;;;;;;;15.26;63.23;96495.81;5013178;28;20033;-76
2023/03/23 07:53:28;;;;;;;;;;;;;;;15.53;62.40;96490.56;5024624;28;20035;-76
2023/03/23 07:55:53;;;;;;;;;;;;;;;15.60;62.86;96499.91;5027715;28;19921;-76
2023/03/23 07:58:20;;;;;;;;;;;;;;;15.47;62.98;96504.06;5028016;28;19928;-76
2023/03/23 08:00:48;;;;;;;;;;;;;;;15.83;62.94;96503.38;5010006;28;19917;-75
2023/03/23 08:03:14;;;;;;;;;;;;;;;15.49;62.69;96499.31;5025295;28;19935;-75
2023/03/23 08:05:41;;;;;;;;;;;;;;;15.63;62.76;96507.19;5027827;28;19917;-76
2023/03/23 08:08:07;;;;;;;;;;;;;;;15.70;62.49;96510.19;5029014;28;19924;-76
2023/03/23 08:10:32;;;;;;;;;;;;;;;15.71;62.44;96512.53;5029154;28;19924;-76
2023/03/23 08:12:59;;;;;;;;;;;;;;;16.01;62.59;96517.47;5044824;28;20164;-76
2023/03/23 08:15:24;;;;;;;;;;;;;;;16.04;61.63;96515.03;4996858;28;20375;-74
2023/03/23 08:17:51;;;;;;;;;;;;;;;15.67;62.06;96518.66;5046416;28;19944;-75
2023/03/23 08:20:18;;;;;;;;;;;;;;;15.96;61.70;96522.81;5028071;28;20158;-74
2023/03/23 08:22:44;;;;;;;;;;;;;;;16.11;62.20;96525.13;5023341;28;20356;-76
2023/03/23 08:25:11;;;;;;;;;;;;;;;16.25;62.26;96530.34;4993252;28;20400;-75
2023/03/23 08:27:37;;;;;;;;;;;;;;;16.28;62.15;96525.28;5042600;28;20226;-75
2023/03/23 08:30:04;;;;;;;;;;;;;;;16.36;61.68;96534.28;5024894;28;19924;-76
2023/03/23 08:32:30;;;;;;;;;;;;;;;16.06;61.88;96531.25;5012321;28;19920;-76
2023/03/23 08:34:55;;;;;;;;;;;;;;;16.12;61.56;96534.53;5029780;28;19967;-76
2023/03/23 08:37:21;;;;;;;;;;;;;;;16.08;62.50;96538.84;5037276;28;19975;-76
2023/03/23 08:39:51;;;;;;;;;;;;;;;16.12;61.71;96544.28;5044995;28;19920;-76
2023/03/23 08:42:18;;;;;;;;;;;;;;;16.25;61.80;96541.63;5025309;28;19918;-75
2023/03/23 08:44:43;;;;;;;;;;;;;;;16.19;62.00;96548.03;5028787;28;19917;-75
2023/03/23 08:47:09;;;;;;;;;;;;;;;16.03;61.21;96547.59;5043481;28;19927;-75
2023/03/23 08:49:34;;;;;;;;;;;;;;;16.28;61.26;96554.16;5028547;28;19921;-76
2023/03/23 08:52:00;;;;;;;;;;;;;;;16.25;61.84;96565.25;5043292;28;19928;-76
2023/03/23 08:54:26;;;;;;;;;;;;;;;16.17;61.19;96559.94;5044975;28;19917;-76
2023/03/23 08:56:52;;;;;;;;;;;;;;;16.10;61.11;96561.09;5043422;28;19921;-76
2023/03/23 08:59:17;;;;;;;;;;;;;;;16.23;61.53;96559.53;5027765;28;19967;-76
2023/03/23 09:01:43;;;;;;;;;;;;;;;15.96;61.64;96556.97;5015277;28;19968;-76
2023/03/23 09:04:08;;;;;;;;;;;;;;;16.04;61.88;96564.13;5011705;28;19921;-76
2023/03/23 09:06:35;;;;;;;;;;;;;;;15.98;62.17;96567.94;5036720;28;20457;-75
2023/03/23 09:09:01;;;;;;;;;;;;;;;15.94;61.83;96566.97;5026314;28;20429;-76
2023/03/23 09:11:26;;;;;;;;;;;;;;;15.74;62.00;96564.41;5023603;28;20035;-75
2023/03/23 09:13:52;;;;;;;;;;;;;;;15.81;62.54;96571.94;5024509;28;20420;-75
2023/03/23 09:16:17;;;;;;;;;;;;;;;15.86;63.08;96573.69;4995150;28;19925;-75
2023/03/23 09:18:43;;;;;;;;;;;;;;;15.54;63.93;96562.97;5043241;28;19921;-75
2023/03/23 09:21:09;;;;;;;;;;;;;;;15.86;62.87;96571.06;4992037;28;19917;-76
2023/03/23 09:23:34;;;;;;;;;;;;;;;15.85;63.21;96583.41;5044578;28;20126;-73
2023/03/23 09:26:00;;;;;;;;;;;;;;;15.89;63.22;96581.75;5028105;28;19921;-76
2023/03/23 09:28:26;;;;;;;;;;;;;;;15.78;62.92;96582.25;5022514;28;19925;-76
2023/03/23 09:30:52;;;;;;;;;;;;;;;15.91;62.68;96576.22;5008014;28;19917;-74
2023/03/23 09:33:17;;;;;;;;;;;;;;;16.10;63.15;96578.72;5026284;28;20445;-75
2023/03/23 09:35:42;;;;;;;;;;;;;;;15.80;63.78;96573.00;4993442;28;19925;-75
2023/03/23 09:38:09;;;;;;;;;;;;;;;16.12;63.49;96573.16;5014659;28;20308;-76
2023/03/23 09:40:53;;;;;;;;;;;;;;;16.37;63.50;96567.38;5044436;28;20410;-76
2023/03/23 09:43:33;;;;;;;;;;;;;;;16.50;62.21;96568.38;5028449;28;19929;-75
2023/03/23 09:46:08;;;;;;;;;;;;;;;16.29;62.98;96568.06;5027217;28;19928;-74
2023/03/23 09:48:36;;;;;;;;;;;;;;;16.45;61.92;96558.00;5043524;28;19953;-75
2023/03/23 09:51:21;;;;;;;;;;;;;;;16.31;62.13;96571.16;5007903;28;19921;-75
2023/03/23 09:53:48;;;;;;;;;;;;;;;16.40;62.27;96568.63;5011571;28;19924;-75
2023/03/23 09:56:14;;;;;;;;;;;;;;;16.28;62.29;96569.94;5027614;28;19917;-75
2023/03/23 09:58:52;;;;;;;;;;;;;;;16.26;62.17;96572.09;5027217;28;19963;-75
2023/03/23 10:01:20;;;;;;;;;;;;;;;16.26;62.87;96574.72;5041087;28;20307;-75
2023/03/23 10:03:46;;;;;;;;;;;;;;;16.42;61.67;96577.00;5003379;28;20420;-75
2023/03/23 10:06:13;;;;;;;;;;;;;;;16.42;61.26;96577.78;4993045;28;19917;-75
2023/03/23 10:08:48;;;;;;;;;;;;;;;16.39;61.96;96577.59;5028046;28;19916;-76
2023/03/23 10:11:25;;;;;;;;;;;;;;;16.60;62.41;96577.91;5018296;28;19921;-75
2023/03/23 10:14:01;;;;;;;;;;;;;;;16.43;61.85;96575.91;5027829;28;19963;-76
2023/03/23 10:16:27;;;;;;;;;;;;;;;16.59;61.85;96581.63;5026069;28;19963;-76
2023/03/23 10:18:59;;;;;;;;;;;;;;;16.44;62.18;96586.13;5044129;28;20403;-74
2023/03/23 10:21:24;;;;;;;;;;;;;;;16.39;61.43;96590.72;5025062;28;19917;-75
2023/03/23 10:23:49;;;;;;;;;;;;;;;16.37;62.15;96592.88;5028230;28;19921;-76
2023/03/23 10:26:24;;;;;;;;;;;;;;;16.34;62.14;96590.84;5040478;28;19920;-73
2023/03/23 10:29:16;;;;;;;;;;;;;;;16.35;62.52;96595.81;5004303;28;19921;-75
2023/03/23 10:32:02;;;;;;;;;;;;;;;16.32;62.29;96598.25;4996117;28;19926;-75
2023/03/23 10:34:33;;;;;;;;;;;;;;;16.09;62.25;96595.53;5019566;28;20364;-76
2023/03/23 10:36:58;;;;;;;;;;;;;;;16.33;62.54;96607.66;5009686;28;19917;-76
2023/03/23 10:39:24;;;;;;;;;;;;;;;16.25;63.01;96601.25;5036067;28;19943;-74
2023/03/23 10:41:49;;;;;;;;;;;;;;;15.98;63.89;96589.72;4993930;28;19940;-75
2023/03/23 10:44:22;;;;;;;;;;;;;;;16.07;64.23;96587.97;5038167;28;20265;-75
2023/03/23 10:46:48;;;;;;;;;;;;;;;15.95;64.63;96586.91;5020885;28;19935;-75
2023/03/23 10:49:16;;;;;;;;;;;;;;;16.21;64.29;96593.19;5032579;28;19920;-75
2023/03/23 10:51:42;;;;;;;;;;;;;;;16.28;64.06;96580.44;5030278;28;19917;-75
2023/03/23 10:54:07;;;;;;;;;;;;;;;16.04;65.27;96587.75;5030722;28;19913;-75
2023/03/23 10:56:37;;;;;;;;;;;;;;;15.97;65.45;96571.63;5047579;28;20368;-74
2023/03/23 10:59:12;;;;;;;;;;;;;;;15.82;66.19;96565.63;5021971;28;20438;-74
2023/03/23 11:01:38;;;;;;;;;;;;;;;15.73;65.83;96575.22;5032232;28;19963;-73
2023/03/23 11:04:04;;;;;;;;;;;;;;;16.06;65.20;96567.25;5030210;28;19921;-74
2023/03/23 11:06:30;;;;;;;;;;;;;;;16.10;65.31;96570.84;5026080;28;19979;-73
2023/03/23 11:09:00;;;;;;;;;;;;;;;16.28;64.08;96572.56;5014005;28;20438;-76
2023/03/23 11:11:25;;;;;;;;;;;;;;;16.28;63.85;96580.44;5030165;28;19960;-74
2023/03/23 11:13:56;;;;;;;;;;;;;;;16.48;64.18;96575.81;5043307;28;19960;-75
2023/03/23 11:16:22;;;;;;;;;;;;;;;16.40;64.70;96587.00;5047254;28;19921;-74
2023/03/23 11:18:48;;;;;;;;;;;;;;;16.44;63.13;96574.84;5014372;28;19917;-74
2023/03/23 11:21:13;;;;;;;;;;;;;;;16.29;64.16;96584.59;5051403;28;20298;-74
2023/03/23 11:23:48;;;;;;;;;;;;;;;16.47;64.24;96587.41;5026944;28;19922;-74
2023/03/23 11:26:16;;;;;;;;;;;;;;;16.50;63.66;96589.41;5003308;28;19918;-75
2023/03/23 11:28:51;;;;;;;;;;;;;;;16.56;63.48;96577.72;5025718;28;19914;-76
2023/03/23 11:31:17;;;;;;;;;;;;;;;16.54;63.44;96569.38;5028746;28;19917;-75
2023/03/23 11:34:03;;;;;;;;;;;;;;;16.69;63.34;96576.13;5047142;28;19943;-75
2023/03/23 11:36:48;;;;;;;;;;;;;;;16.51;63.22;96569.97;5038350;28;19975;-76
2023/03/23 11:39:23;;;;;;;;;;;;;;;16.35;63.85;96572.16;5027485;28;19917;-75
2023/03/23 11:41:48;;;;;;;;;;;;;;;16.53;63.81;96570.44;5012533;28;20415;-76
2023/03/23 11:44:14;;;;;;;;;;;;;;;16.42;64.35;96572.50;5045403;28;19964;-72
2023/03/23 11:46:41;;;;;;;;;;;;;;;16.29;63.50;96571.47;4996637;28;20276;-75
2023/03/23 11:49:15;;;;;;;;;;;;;;;16.59;62.86;96560.59;5028827;28;20287;-75
2023/03/23 11:51:42;;;;;;;;;;;;;;;16.46;63.96;96556.94;5010291;28;19913;-74
2023/03/23 11:54:11;;;;;;;;;;;;;;;16.67;63.69;96567.75;5025053;28;20029;-76
2023/03/23 11:56:37;;;;;;;;;;;;;;;16.92;62.81;96563.78;5023227;28;20330;-74
2023/03/23 11:59:04;;;;;;;;;;;;;;;17.03;62.03;96561.66;5044807;28;19917;-76
2023/03/23 12:01:33;;;;;;;;;;;;;;;16.90;62.93;96571.19;5045397;28;19921;-75
2023/03/23 12:04:16;;;;;;;;;;;;;;;16.77;62.58;96569.38;5029727;28;19926;-77
2023/03/23 12:07:01;;;;;;;;;;;;;;;16.95;62.51;96567.69;5032367;28;20354;-76
2023/03/23 12:09:30;;;;;;;;;;;;;;;16.92;62.08;96570.91;5046065;28;19917;-76
2023/03/23 12:12:07;;;;;;;;;;;;;;;16.81;62.34;96565.06;5045712;28;19921;-75
2023/03/23 12:14:48;;;;;;;;;;;;;;;16.48;62.91;96560.03;5038064;28;20312;-75
2023/03/23 12:17:32;;;;;;;;;;;;;;;16.72;63.15;96570.25;4996063;28;19924;-75
2023/03/23 12:19:57;;;;;;;;;;;;;;;16.43;62.96;96552.25;5029324;28;20519;-75
2023/03/23 12:22:36;;;;;;;;;;;;;;;16.60;63.26;96565.53;5027459;28;20117;-74
2023/03/23 12:25:05;;;;;;;;;;;;;;;16.48;63.09;96555.56;5009440;28;19917;-75
2023/03/23 12:27:37;;;;;;;;;;;;;;;16.59;63.62;96552.72;5045703;28;20015;-74
2023/03/23 12:30:06;;;;;;;;;;;;;;;16.69;62.59;96555.09;5043888;28;20377;-75
2023/03/23 12:32:37;;;;;;;;;;;;;;;16.46;63.62;96549.03;5043124;28;20011;-76
2023/03/23 12:35:09;;;;;;;;;;;;;;;16.53;64.25;96519.72;5029831;28;20307;-74
2023/03/23 12:37:50;;;;;;;;;;;;;;;16.78;63.84;96510.47;5044898;28;20134;-73
2023/03/23 12:40:15;;;;;;;;;;;;;;;17.06;64.53;96500.59;5044197;28;19972;-74
2023/03/23 12:42:59;;;;;;;;;;;;;;;16.68;64.74;96506.22;5044139;28;19921;-74
2023/03/23 12:45:37;;;;;;;;;;;;;;;16.89;62.70;96511.00;5042410;28;19925;-73
2023/03/23 12:48:07;;;;;;;;;;;;;;;16.91;62.46;96517.50;4995489;28;19939;-76
2023/03/23 12:50:34;;;;;;;;;;;;;;;16.90;61.39;96515.97;5044150;28;20043;-74